Time;durP1;ratioP1;P1;durP2;ratioP2;P2;SDS_P1;SDS_P2;PMS_P1;PMS_P2;Temp;Humidity;BMP_temperature;BMP_pressure;BME280_temperature;BME280_humidity;BME280_pressure;Samples;Min_cycle;Max_cycle;Signal;HPM_P1;HPM_P2
2021/10/13 00:00:56;;;;;;;1.45;1.05;;;18.70;80.30;;;;;;5047155;28;89290;-82
2021/10/13 00:03:21;;;;;;;1.60;0.98;;;18.70;79.80;;;;;;5047766;27;87045;-81
2021/10/13 00:05:47;;;;;;;2.10;0.90;;;18.60;79.70;;;;;;5047118;27;88530;-81
2021/10/13 00:08:13;;;;;;;1.75;1.00;;;18.60;80.40;;;;;;5044904;28;89645;-81
2021/10/13 00:10:39;;;;;;;1.52;1.10;;;18.60;79.80;;;;;;5043616;28;88282;-81
2021/10/13 00:13:04;;;;;;;2.15;1.20;;;18.60;79.80;;;;;;5079046;27;87193;-81
2021/10/13 00:15:30;;;;;;;3.25;1.25;;;18.60;79.80;;;;;;5042421;28;88474;-82
2021/10/13 00:17:56;;;;;;;1.67;1.00;;;18.60;79.80;;;;;;5044920;28;87038;-82
2021/10/13 00:20:22;;;;;;;1.45;0.85;;;18.60;79.80;;;;;;5077566;27;89829;-82
2021/10/13 00:22:48;;;;;;;1.95;0.95;;;18.60;79.90;;;;;;5042635;27;88104;-80
2021/10/13 00:25:14;;;;;;;1.42;0.90;;;18.60;79.90;;;;;;5040806;28;87593;-81
2021/10/13 00:27:40;;;;;;;1.90;1.10;;;18.50;79.80;;;;;;5074581;27;88751;-80
2021/10/13 00:30:06;;;;;;;1.70;1.25;;;18.50;79.80;;;;;;5040591;28;90121;-81
2021/10/13 00:32:32;;;;;;;2.30;1.20;;;18.50;79.80;;;;;;5045399;28;87132;-81
2021/10/13 00:34:57;;;;;;;2.00;1.00;;;18.50;79.80;;;;;;5043289;28;88678;-82
2021/10/13 00:37:23;;;;;;;1.73;1.05;;;18.50;79.80;;;;;;5044929;28;89599;-81
2021/10/13 00:39:49;;;;;;;1.13;0.80;;;18.40;79.80;;;;;;5046056;27;88101;-81
2021/10/13 00:42:15;;;;;;;1.65;1.10;;;18.40;79.70;;;;;;5044842;28;87118;-82
2021/10/13 00:44:45;;;;;;;1.77;1.02;;;18.40;79.70;;;;;;5046253;27;89196;-81
2021/10/13 00:47:10;;;;;;;2.35;1.30;;;18.40;79.70;;;;;;5044123;28;91014;-81
2021/10/13 00:49:36;;;;;;;1.20;1.00;;;18.40;79.70;;;;;;5046745;27;91306;-82
2021/10/13 00:52:03;;;;;;;2.88;1.00;;;18.40;79.70;;;;;;5044775;28;87108;-82
2021/10/13 00:54:30;;;;;;;2.00;1.00;;;18.40;79.70;;;;;;5047580;28;88908;-82
2021/10/13 00:56:55;;;;;;;1.63;1.33;;;18.40;79.80;;;;;;5048382;27;87864;-81
2021/10/13 00:59:21;;;;;;;0.98;0.82;;;18.40;79.80;;;;;;5047660;28;87828;-82
2021/10/13 01:01:56;;;;;;;1.77;1.00;;;18.40;79.90;;;;;;5045728;28;87269;-82
2021/10/13 01:05:23;;;;;;;1.45;1.00;;;18.30;79.70;;;;;;5048215;28;87812;-82
2021/10/13 01:08:03;;;;;;;1.50;1.00;;;18.40;79.70;;;;;;5003367;28;89546;-82
2021/10/13 01:10:32;;;;;;;2.22;1.10;;;18.30;79.70;;;;;;5051627;28;87107;-82
2021/10/13 01:13:15;;;;;;;1.92;1.08;;;18.30;79.80;;;;;;5046708;28;87949;-81
2021/10/13 01:16:40;;;;;;;1.67;0.95;;;18.30;79.80;;;;;;5048621;28;87422;-83
2021/10/13 01:19:23;;;;;;;1.30;0.95;;;18.30;79.80;;;;;;5044366;27;87102;-82
2021/10/13 01:22:11;;;;;;;1.70;1.13;;;18.30;79.90;;;;;;5056416;28;86928;-82
2021/10/13 01:25:10;;;;;;;1.13;0.93;;;18.30;80.00;;;;;;5054230;27;87038;-82
2021/10/13 01:27:45;;;;;;;1.65;1.17;;;18.30;79.90;;;;;;5050756;28;87109;-82
2021/10/13 01:30:11;;;;;;;1.40;0.98;;;18.20;79.90;;;;;;5052596;27;90517;-82
2021/10/13 01:32:40;;;;;;;2.08;1.00;;;18.20;80.00;;;;;;5055158;28;87959;-83
2021/10/13 01:35:08;;;;;;;3.05;1.05;;;18.30;80.00;;;;;;5054457;28;86939;-83
2021/10/13 01:37:52;;;;;;;1.00;0.90;;;18.20;79.90;;;;;;5055323;28;87528;-81
2021/10/13 01:40:20;;;;;;;1.70;0.90;;;18.20;79.90;;;;;;5055576;28;91358;-82
2021/10/13 01:42:50;;;;;;;2.28;1.10;;;18.20;79.80;;;;;;5055907;28;87815;-83
2021/10/13 01:45:18;;;;;;;1.40;1.08;;;18.20;79.90;;;;;;5056604;28;86930;-82
2021/10/13 01:47:47;;;;;;;2.40;1.00;;;18.20;79.90;;;;;;5053538;28;87202;-82
2021/10/13 01:50:13;;;;;;;1.67;1.08;;;18.20;79.80;;;;;;5055005;28;87638;-82
2021/10/13 01:52:41;;;;;;;2.33;1.20;;;18.10;79.80;;;;;;5046717;28;91142;-83
2021/10/13 01:55:09;;;;;;;1.50;0.80;;;18.20;79.80;;;;;;5049450;28;87109;-83
2021/10/13 01:57:36;;;;;;;1.45;1.05;;;18.10;79.80;;;;;;5050862;27;87004;-82
2021/10/13 02:00:06;;;;;;;1.40;0.93;;;18.10;79.80;;;;;;5048220;28;88003;-82
2021/10/13 02:02:34;;;;;;;1.70;0.80;;;18.10;79.70;;;;;;5046878;28;89430;-83
2021/10/13 02:05:01;;;;;;;1.10;0.70;;;18.10;79.80;;;;;;5047626;28;87952;-82
2021/10/13 02:07:29;;;;;;;1.15;0.90;;;18.10;79.80;;;;;;5048417;28;87087;-82
2021/10/13 02:10:01;;;;;;;1.77;0.90;;;18.10;79.80;;;;;;5049596;28;87426;-82
2021/10/13 02:12:27;;;;;;;1.83;1.10;;;18.10;79.80;;;;;;5045735;28;87770;-82
2021/10/13 02:14:54;;;;;;;1.10;0.88;;;18.10;79.80;;;;;;5046562;28;87162;-82
2021/10/13 02:17:21;;;;;;;2.08;1.00;;;18.10;79.80;;;;;;5049495;27;87488;-82
2021/10/13 02:19:48;;;;;;;0.95;0.68;;;18.10;79.80;;;;;;5051305;28;89104;-82
2021/10/13 02:22:17;;;;;;;2.45;1.15;;;18.00;79.70;;;;;;5061822;27;86411;-83
2021/10/13 02:24:51;;;;;;;1.48;0.88;;;18.00;79.70;;;;;;5058674;28;87061;-82
2021/10/13 02:27:44;;;;;;;1.40;0.82;;;18.00;79.70;;;;;;5077637;27;87639;-82
2021/10/13 02:30:11;;;;;;;2.30;0.95;;;18.00;79.70;;;;;;5045019;28;89161;-81
2021/10/13 02:32:37;;;;;;;1.08;0.80;;;18.00;79.80;;;;;;5078132;27;90734;-82
2021/10/13 02:35:05;;;;;;;1.17;0.90;;;18.00;79.70;;;;;;5045285;28;87644;-82
2021/10/13 02:37:33;;;;;;;1.17;0.88;;;18.00;79.70;;;;;;5045071;28;88180;-82
2021/10/13 02:39:59;;;;;;;0.80;0.70;;;18.00;79.70;;;;;;5047694;28;87693;-82
2021/10/13 02:42:24;;;;;;;3.20;0.90;;;18.00;79.50;;;;;;5045013;27;89805;-82
2021/10/13 02:44:50;;;;;;;1.17;0.85;;;18.00;79.60;;;;;;5047572;28;87574;-83
2021/10/13 02:47:36;;;;;;;1.10;1.00;;;18.00;79.60;;;;;;5081941;27;86639;-82
2021/10/13 02:50:41;;;;;;;1.45;1.00;;;18.00;79.60;;;;;;5049104;28;89750;-82
2021/10/13 02:53:07;;;;;;;2.22;1.00;;;17.90;79.60;;;;;;5049399;28;87510;-82
2021/10/13 02:55:55;;;;;;;1.90;0.82;;;18.00;79.60;;;;;;5051427;28;88059;-82
2021/10/13 02:58:32;;;;;;;1.25;0.85;;;18.00;79.60;;;;;;5053515;27;86942;-83
2021/10/13 03:01:01;;;;;;;3.08;0.95;;;18.00;79.50;;;;;;5052974;28;91052;-82
2021/10/13 03:03:38;;;;;;;1.75;0.80;;;18.00;79.40;;;;;;5087269;27;90054;-82
2021/10/13 03:06:05;;;;;;;1.13;0.80;;;18.00;79.40;;;;;;5055039;27;87055;-82
2021/10/13 03:08:37;;;;;;;0.98;0.77;;;18.00;79.40;;;;;;5060879;28;87873;-83
2021/10/13 03:11:05;;;;;;;2.53;1.10;;;18.00;79.30;;;;;;5058940;27;87799;-82
2021/10/13 03:13:37;;;;;;;0.90;0.70;;;18.00;79.30;;;;;;5052342;28;87007;-82
2021/10/13 03:16:06;;;;;;;1.80;1.00;;;18.00;79.30;;;;;;5056081;27;87111;-82
2021/10/13 03:18:36;;;;;;;1.38;1.08;;;18.00;79.20;;;;;;5059655;28;89095;-82
2021/10/13 03:21:10;;;;;;;2.38;1.10;;;18.00;79.20;;;;;;5062650;27;88034;-84
2021/10/13 03:23:36;;;;;;;1.70;0.80;;;18.00;79.20;;;;;;5061858;28;87188;-83
2021/10/13 03:26:20;;;;;;;1.35;1.00;;;18.00;79.20;;;;;;5059807;28;86878;-82
2021/10/13 03:28:45;;;;;;;2.63;0.80;;;18.00;79.10;;;;;;5052411;28;91318;-83
2021/10/13 03:31:11;;;;;;;0.93;0.80;;;18.00;79.20;;;;;;5050175;28;89983;-82
2021/10/13 03:33:38;;;;;;;0.98;0.70;;;18.00;79.30;;;;;;5051546;28;88898;-83
2021/10/13 03:36:06;;;;;;;1.77;0.70;;;18.00;79.20;;;;;;5055655;28;86805;-83
2021/10/13 03:38:32;;;;;;;0.85;0.85;;;18.00;79.20;;;;;;5059771;27;86407;-83
2021/10/13 03:41:07;;;;;;;1.27;0.88;;;18.00;79.30;;;;;;5057700;28;90283;-83
2021/10/13 03:43:33;;;;;;;1.30;0.90;;;18.00;79.20;;;;;;5056608;28;87795;-82
2021/10/13 03:45:59;;;;;;;1.17;0.88;;;18.00;79.20;;;;;;5057794;28;88301;-83
2021/10/13 03:48:27;;;;;;;0.63;0.63;;;18.00;79.30;;;;;;5091458;27;86618;-82
2021/10/13 03:50:56;;;;;;;2.65;0.85;;;18.00;79.30;;;;;;5092052;27;90089;-83
2021/10/13 03:53:21;;;;;;;1.02;0.90;;;18.00;79.20;;;;;;5057114;27;88792;-83
2021/10/13 03:55:47;;;;;;;1.35;0.80;;;18.00;79.20;;;;;;5059669;28;86958;-83
2021/10/13 03:58:13;;;;;;;1.30;1.20;;;18.00;79.20;;;;;;5059453;27;86789;-83
2021/10/13 04:00:53;;;;;;;1.08;0.77;;;18.00;79.20;;;;;;5090877;27;89258;-82
2021/10/13 04:03:18;;;;;;;1.20;0.98;;;18.00;79.10;;;;;;5060653;28;90868;-83
2021/10/13 04:05:44;;;;;;;1.23;0.82;;;18.00;79.10;;;;;;5060014;28;87650;-83
2021/10/13 04:08:09;;;;;;;2.25;0.80;;;17.90;79.00;;;;;;5059125;28;89568;-83
2021/10/13 04:10:35;;;;;;;2.30;0.70;;;17.90;79.10;;;;;;5090360;27;90669;-83
2021/10/13 04:13:11;;;;;;;1.23;0.98;;;17.90;79.00;;;;;;5057936;28;88337;-82
2021/10/13 04:15:37;;;;;;;1.83;1.08;;;17.90;78.90;;;;;;5072344;27;86669;-82
2021/10/13 04:18:04;;;;;;;1.00;0.90;;;17.90;79.00;;;;;;5093124;27;86947;-83
2021/10/13 04:20:42;;;;;;;1.65;1.02;;;17.90;79.10;;;;;;5061985;28;88524;-83
2021/10/13 04:23:08;;;;;;;1.75;1.00;;;17.90;78.90;;;;;;5060939;28;87658;-83
2021/10/13 04:25:33;;;;;;;1.88;0.70;;;17.90;79.00;;;;;;5060839;28;86987;-82
2021/10/13 04:27:59;;;;;;;1.60;0.90;;;17.90;78.90;;;;;;5059252;28;86378;-82
2021/10/13 04:30:25;;;;;;;0.70;0.70;;;17.90;78.90;;;;;;5060385;27;89898;-83
2021/10/13 04:32:50;;;;;;;1.15;0.80;;;17.90;78.90;;;;;;5057351;28;87917;-83
2021/10/13 04:35:16;;;;;;;1.45;1.10;;;17.90;78.90;;;;;;5055367;27;88376;-82
2021/10/13 04:37:42;;;;;;;0.98;0.90;;;17.90;78.90;;;;;;5055622;27;87180;-82
2021/10/13 04:40:08;;;;;;;0.90;0.90;;;17.90;78.90;;;;;;5058006;27;87899;-83
2021/10/13 04:42:34;;;;;;;1.23;0.90;;;17.90;78.90;;;;;;5058204;28;89279;-82
2021/10/13 04:45:00;;;;;;;1.20;1.00;;;17.90;78.80;;;;;;5062565;28;87191;-82
2021/10/13 04:50:01;;;;;;;1.58;1.13;;;17.90;78.80;;;;;;5142573;22;88854;-79
2021/10/13 04:52:28;;;;;;;1.55;0.88;;;17.90;78.80;;;;;;5076472;27;88465;-81
2021/10/13 04:54:54;;;;;;;0.90;0.80;;;17.90;78.80;;;;;;5080190;27;87119;-82
2021/10/13 04:57:19;;;;;;;1.27;0.93;;;17.90;78.70;;;;;;5073978;27;87108;-83
2021/10/13 04:59:45;;;;;;;0.70;0.70;;;17.90;78.80;;;;;;5076085;27;90468;-83
2021/10/13 05:02:10;;;;;;;1.15;0.90;;;17.90;78.70;;;;;;5077626;27;89066;-83
2021/10/13 05:04:36;;;;;;;1.45;0.90;;;17.90;78.80;;;;;;5074395;27;87286;-82
2021/10/13 05:07:02;;;;;;;1.02;0.82;;;17.90;78.70;;;;;;5074610;27;88723;-82
2021/10/13 05:09:27;;;;;;;1.23;0.82;;;17.90;78.80;;;;;;5070032;27;88229;-82
2021/10/13 05:11:54;;;;;;;1.30;0.90;;;17.90;78.70;;;;;;5073927;27;87930;-77
2021/10/13 05:14:19;;;;;;;0.85;0.80;;;17.90;78.50;;;;;;5060798;27;87184;-75
2021/10/13 05:16:45;;;;;;;1.38;0.65;;;17.90;78.50;;;;;;5069771;27;89167;-78
2021/10/13 05:19:11;;;;;;;1.35;0.70;;;17.90;78.70;;;;;;5068860;27;90348;-76
2021/10/13 05:21:36;;;;;;;0.70;0.70;;;17.90;78.70;;;;;;5068416;27;88031;-79
2021/10/13 05:24:03;;;;;;;2.30;1.00;;;17.90;78.70;;;;;;5062965;27;88196;-78
2021/10/13 05:26:28;;;;;;;1.17;1.00;;;18.00;78.50;;;;;;5066490;27;87413;-77
2021/10/13 05:28:54;;;;;;;1.15;0.85;;;18.10;78.10;;;;;;5067224;27;87447;-78
2021/10/13 05:31:20;;;;;;;1.05;0.70;;;18.20;77.60;;;;;;5056395;27;87692;-78
2021/10/13 05:33:46;;;;;;;1.75;1.00;;;18.30;77.30;;;;;;5057458;27;88116;-79
2021/10/13 05:36:11;;;;;;;1.42;0.90;;;18.40;77.00;;;;;;5063840;27;90694;-79
2021/10/13 05:38:37;;;;;;;1.35;0.80;;;18.40;76.70;;;;;;5058812;27;89328;-78
2021/10/13 05:41:03;;;;;;;1.15;0.70;;;18.50;76.50;;;;;;5062796;27;88270;-80
2021/10/13 05:43:29;;;;;;;1.35;0.90;;;18.50;76.40;;;;;;5066952;27;87516;-80
2021/10/13 05:45:55;;;;;;;1.20;0.98;;;18.50;76.00;;;;;;5059210;27;88155;-80
2021/10/13 05:48:23;;;;;;;2.03;0.80;;;18.50;75.50;;;;;;5061046;27;89042;-79
2021/10/13 05:50:49;;;;;;;1.92;1.15;;;18.50;75.00;;;;;;5060094;27;89998;-78
2021/10/13 05:53:15;;;;;;;32.88;5.57;;;18.50;74.40;;;;;;5056013;27;87688;-78
2021/10/13 05:55:40;;;;;;;42.95;8.00;;;18.50;74.00;;;;;;5064192;27;87184;-80
2021/10/13 05:58:06;;;;;;;47.03;9.18;;;18.50;73.50;;;;;;5079501;27;90013;-80
2021/10/13 06:00:33;;;;;;;34.72;6.40;;;18.50;76.70;;;;;;5068459;27;87920;-81
2021/10/13 06:02:59;;;;;;;33.40;6.72;;;18.60;79.80;;;;;;5084996;27;86821;-81
2021/10/13 06:05:25;;;;;;;31.35;5.03;;;18.80;80.70;;;;;;5101513;27;86771;-79
2021/10/13 06:07:52;;;;;;;24.40;4.75;;;18.90;78.80;;;;;;5075611;27;89611;-79
2021/10/13 06:10:18;;;;;;;27.92;4.93;;;19.10;77.40;;;;;;5081855;27;88517;-81
2021/10/13 06:12:44;;;;;;;24.85;5.32;;;19.20;76.50;;;;;;5080995;27;88119;-80
2021/10/13 06:15:10;;;;;;;23.00;5.60;;;19.30;75.10;;;;;;5080631;27;88193;-82
2021/10/13 06:17:36;;;;;;;25.10;4.90;;;19.50;75.20;;;;;;5086364;27;87716;-82
2021/10/13 06:20:02;;;;;;;35.25;4.97;;;19.60;76.90;;;;;;5095640;27;87672;-82
2021/10/13 06:22:28;;;;;;;24.20;4.72;;;19.80;76.40;;;;;;5093928;27;87293;-83
2021/10/13 06:24:55;;;;;;;22.58;5.13;;;19.90;76.10;;;;;;5088836;27;86872;-82
2021/10/13 06:27:21;;;;;;;21.00;4.88;;;20.10;75.80;;;;;;5093220;27;87640;-82
2021/10/13 06:29:50;;;;;;;27.05;5.30;;;20.10;75.30;;;;;;5099891;27;90598;-82
2021/10/13 06:32:16;;;;;;;15.98;3.90;;;20.30;74.70;;;;;;5093537;27;86599;-83
2021/10/13 06:34:44;;;;;;;20.95;4.38;;;20.40;74.10;;;;;;5091826;27;88002;-81
2021/10/13 06:37:09;;;;;;;14.52;4.60;;;20.50;73.60;;;;;;5091604;27;88098;-83
2021/10/13 06:39:37;;;;;;;19.40;3.75;;;20.50;73.10;;;;;;5090412;27;87792;-82
2021/10/13 06:42:15;;;;;;;12.80;3.95;;;20.50;72.60;;;;;;5089321;27;86985;-83
2021/10/13 06:44:40;;;;;;;21.83;4.20;;;20.50;72.10;;;;;;5081400;27;87158;-81
2021/10/13 06:47:06;;;;;;;19.20;3.70;;;20.50;71.80;;;;;;5075103;27;87707;-79
2021/10/13 06:49:32;;;;;;;25.80;4.55;;;20.50;72.00;;;;;;5071605;27;87194;-79
2021/10/13 06:51:57;;;;;;;19.00;3.70;;;20.50;72.20;;;;;;5068212;27;87572;-79
2021/10/13 06:54:23;;;;;;;21.25;4.70;;;20.50;72.30;;;;;;5067167;27;86890;-79
2021/10/13 06:56:49;;;;;;;25.45;4.68;;;20.50;72.60;;;;;;5058418;27;90920;-78
2021/10/13 06:59:14;;;;;;;22.33;4.13;;;20.50;73.00;;;;;;5064662;27;88093;-78
2021/10/13 07:01:40;;;;;;;27.00;10.90;;;20.50;72.80;;;;;;5079865;27;88183;-79
2021/10/13 07:04:05;;;;;;;29.42;13.25;;;20.40;72.10;;;;;;5072788;27;87432;-79
2021/10/13 07:06:31;;;;;;;194.25;51.72;;;20.40;71.80;;;;;;5072038;27;87106;-79
2021/10/13 07:08:57;;;;;;;224.48;99.45;;;20.30;71.70;;;;;;5043394;27;87130;-78
2021/10/13 07:11:23;;;;;;;856.55;240.50;;;20.20;71.50;;;;;;5043871;27;87254;-78
2021/10/13 07:13:49;;;;;;;398.35;134.38;;;20.20;71.60;;;;;;5075246;27;88224;-81
2021/10/13 07:16:15;;;;;;;213.82;74.93;;;20.10;71.70;;;;;;5053146;27;88932;-79
2021/10/13 07:18:40;;;;;;;115.22;44.58;;;20.10;71.70;;;;;;5072960;27;88292;-78
2021/10/13 07:21:06;;;;;;;91.38;30.67;;;20.20;72.60;;;;;;5050331;27;88116;-81
2021/10/13 07:23:32;;;;;;;70.05;21.52;;;20.30;72.10;;;;;;5052058;27;88082;-79
2021/10/13 07:25:58;;;;;;;55.38;18.15;;;20.40;71.60;;;;;;5074197;27;88241;-81
2021/10/13 07:28:26;;;;;;;49.78;16.55;;;20.40;71.50;;;;;;5064405;27;88645;-79
2021/10/13 07:30:53;;;;;;;44.75;15.48;;;20.50;70.70;;;;;;5061916;27;87998;-79
2021/10/13 07:33:19;;;;;;;45.45;15.13;;;20.60;71.00;;;;;;5065736;27;87854;-76
2021/10/13 07:35:45;;;;;;;44.33;14.80;;;20.70;71.10;;;;;;5062252;27;87927;-78
2021/10/13 07:38:13;;;;;;;42.38;14.25;;;20.70;71.00;;;;;;5046964;27;91829;-81
2021/10/13 07:40:39;;;;;;;50.53;14.00;;;20.80;71.10;;;;;;5054956;27;87440;-80
2021/10/13 07:43:05;;;;;;;35.22;13.18;;;20.80;71.20;;;;;;5063592;27;86825;-78
2021/10/13 07:45:31;;;;;;;45.78;13.65;;;20.80;71.30;;;;;;5063286;27;88142;-78
2021/10/13 07:47:57;;;;;;;37.72;13.50;;;20.80;71.50;;;;;;5063960;27;88363;-77
2021/10/13 07:50:37;;;;;;;35.10;12.40;;;20.70;71.60;;;;;;4996378;27;88322;-79
2021/10/13 07:53:04;;;;;;;35.55;12.40;;;20.80;71.80;;;;;;5053021;27;97956;-78
2021/10/13 07:55:36;;;;;;;38.28;12.45;;;20.80;71.80;;;;;;5069148;27;88244;-78
2021/10/13 07:58:02;;;;;;;32.03;10.68;;;20.90;71.60;;;;;;5072207;27;88592;-80
2021/10/13 08:00:32;;;;;;;37.15;11.32;;;20.90;71.40;;;;;;5046914;27;88059;-78
2021/10/13 08:02:58;;;;;;;35.63;11.48;;;21.00;71.10;;;;;;5060433;27;87776;-73
2021/10/13 08:05:23;;;;;;;27.75;10.80;;;21.10;70.90;;;;;;5073091;27;88631;-79
2021/10/13 08:07:49;;;;;;;34.05;11.05;;;21.20;70.60;;;;;;5055866;27;91430;-79
2021/10/13 08:10:15;;;;;;;31.77;11.00;;;21.30;70.50;;;;;;5049072;27;87713;-78
2021/10/13 08:12:41;;;;;;;36.13;11.48;;;21.30;70.30;;;;;;5047000;27;90104;-75
2021/10/13 08:15:08;;;;;;;33.78;10.73;;;21.30;70.20;;;;;;5049164;27;91294;-77
2021/10/13 08:17:34;;;;;;;27.63;10.32;;;21.30;70.20;;;;;;5043030;27;90607;-76
2021/10/13 08:20:03;;;;;;;28.40;10.43;;;21.30;70.20;;;;;;5069037;27;87116;-77
2021/10/13 08:22:29;;;;;;;31.90;10.63;;;21.30;70.30;;;;;;5062893;27;87192;-77
2021/10/13 08:24:55;;;;;;;22.50;9.88;;;21.20;73.60;;;;;;5058788;27;88058;-76
2021/10/13 08:27:21;;;;;;;32.30;11.32;;;21.20;75.30;;;;;;5047181;27;91172;-79
2021/10/13 08:29:49;;;;;;;28.33;10.35;;;21.20;73.40;;;;;;5041206;27;87933;-77
2021/10/13 08:32:15;;;;;;;29.55;9.85;;;21.20;72.40;;;;;;5057172;27;86924;-77
2021/10/13 08:34:41;;;;;;;28.25;9.70;;;21.20;72.20;;;;;;5060794;27;87791;-77
2021/10/13 08:37:08;;;;;;;26.02;10.27;;;21.20;72.30;;;;;;5060018;27;88140;-78
2021/10/13 08:40:04;;;;;;;54.55;10.20;;;21.20;71.80;;;;;;5043639;27;86252;-77
2021/10/13 08:42:30;;;;;;;60.50;28.10;;;21.20;71.90;;;;;;5040201;27;88167;-78
2021/10/13 08:44:56;;;;;;;33.22;14.68;;;21.20;73.80;;;;;;5029712;28;85880;-77
2021/10/13 08:47:23;;;;;;;33.47;12.52;;;21.30;73.60;;;;;;5027581;27;87005;-75
2021/10/13 08:50:18;;;;;;;30.33;11.88;;;21.20;72.70;;;;;;5038062;28;87940;-74
2021/10/13 08:52:43;;;;;;;38.78;13.15;;;21.20;71.90;;;;;;5036075;28;86727;-75
2021/10/13 08:55:33;;;;;;;38.88;17.65;;;21.20;72.60;;;;;;5037600;28;86587;-76
2021/10/13 09:01:48;;;;;;;29.85;9.73;;;21.20;76.00;;;;;;5036166;28;85617;-77
2021/10/13 09:05:09;;;;;;;26.13;9.57;;;21.10;73.30;;;;;;5039475;28;85650;-75
2021/10/13 09:07:50;;;;;;;25.70;8.95;;;21.10;72.10;;;;;;5038095;28;85784;-75
2021/10/13 09:11:05;;;;;;;25.70;8.35;;;21.20;75.20;;;;;;5039070;28;87237;-76
2021/10/13 09:13:36;;;;;;;;;;;21.30;74.20;;;;;;5018232;28;86151;-77
2021/10/13 09:19:28;;;;;;;21.88;6.40;;;21.30;72.80;;;;;;5009325;28;85634;-77
2021/10/13 09:28:41;;;;;;;21.30;5.90;;;21.40;70.00;;;;;;5019065;28;85469;-76
2021/10/13 09:35:00;;;;;;;13.98;5.63;;;21.50;68.60;;;;;;5018302;28;85563;-75
2021/10/13 09:38:31;;;;;;;14.48;5.25;;;21.50;67.80;;;;;;5038970;28;86807;-77
2021/10/13 09:41:00;;;;;;;24.50;6.07;;;21.50;69.40;;;;;;4998138;28;85759;-76
2021/10/13 09:43:33;;;;;;;14.52;5.63;;;21.50;69.70;;;;;;5033081;28;85963;-75
2021/10/13 09:49:04;;;;;;;37.85;7.88;;;21.60;70.30;;;;;;5033322;28;85688;-74
2021/10/13 09:51:39;;;;;;;18.48;5.80;;;21.50;72.30;;;;;;5026267;28;85725;-74
2021/10/13 09:54:59;;;;;;;16.23;5.70;;;21.50;73.70;;;;;;5024061;28;85806;-75
2021/10/13 09:57:31;;;;;;;15.68;5.10;;;21.60;74.20;;;;;;5000420;28;90429;-75
2021/10/13 10:00:23;;;;;;;23.63;6.40;;;21.70;74.20;;;;;;5006993;28;88071;-75
2021/10/13 10:03:07;;;;;;;19.17;5.85;;;21.80;74.00;;;;;;5024022;28;85734;-74
2021/10/13 10:05:35;;;;;;;19.75;6.15;;;21.90;73.20;;;;;;5022418;28;85834;-75
2021/10/13 10:08:02;;;;;;;15.63;6.25;;;22.00;72.70;;;;;;5021372;28;90353;-74
2021/10/13 10:10:28;;;;;;;17.23;6.35;;;22.00;72.00;;;;;;5022715;28;89448;-75
2021/10/13 10:13:11;;;;;;;16.60;6.18;;;22.00;71.70;;;;;;5019807;28;85802;-75
2021/10/13 10:15:47;;;;;;;15.38;5.05;;;22.00;72.10;;;;;;5022263;28;85971;-74
2021/10/13 10:18:35;;;;;;;16.63;5.82;;;21.90;71.80;;;;;;5025219;28;87005;-74
2021/10/13 10:22:03;;;;;;;16.13;5.18;;;21.90;71.10;;;;;;5024275;28;89154;-75
2021/10/13 10:24:37;;;;;;;13.50;5.30;;;21.80;70.90;;;;;;4972295;28;85844;-74
2021/10/13 10:27:35;;;;;;;15.23;5.22;;;21.80;70.70;;;;;;5020357;28;85643;-75
2021/10/13 10:30:10;;;;;;;13.45;4.78;;;21.70;70.70;;;;;;5014429;28;88518;-75
2021/10/13 10:32:41;;;;;;;17.02;4.63;;;21.70;70.70;;;;;;5024745;28;85518;-76
2021/10/13 10:35:25;;;;;;;13.13;4.72;;;21.70;70.70;;;;;;5024558;28;85627;-74
2021/10/13 10:38:06;;;;;;;15.20;4.72;;;21.70;70.90;;;;;;5024125;28;85906;-74
2021/10/13 10:40:34;;;;;;;20.50;5.45;;;21.70;70.70;;;;;;5025258;28;86372;-74
2021/10/13 10:46:57;;;;;;;16.50;4.45;;;21.80;70.50;;;;;;5006847;28;85407;-74
2021/10/13 10:49:45;;;;;;;15.18;4.70;;;21.80;70.40;;;;;;5024155;28;85817;-74
2021/10/13 10:52:54;;;;;;;13.50;4.13;;;21.80;70.30;;;;;;5021413;28;87313;-74
2021/10/13 10:58:28;;;;;;;11.48;4.63;;;21.70;70.00;;;;;;5024540;28;85705;-74
2021/10/13 11:01:34;;;;;;;16.60;5.03;;;21.70;70.00;;;;;;5023390;28;85726;-75
2021/10/13 11:04:11;;;;;;;12.95;4.30;;;21.70;70.10;;;;;;5010588;28;86965;-75
2021/10/13 11:06:39;;;;;;;10.15;4.45;;;21.70;70.00;;;;;;5024431;28;85990;-75
2021/10/13 11:09:10;;;;;;;13.90;4.30;;;21.70;70.10;;;;;;5020175;28;85665;-74
2021/10/13 11:11:50;;;;;;;10.63;3.65;;;21.70;70.10;;;;;;5012200;28;85905;-74
2021/10/13 11:14:32;;;;;;;10.10;3.45;;;21.70;70.20;;;;;;5023137;28;91551;-75
2021/10/13 11:16:59;;;;;;;18.00;4.65;;;21.70;70.10;;;;;;5018673;28;86870;-75
2021/10/13 11:57:16;;;;;;;9.15;3.63;;;21.70;69.60;;;;;;5016784;28;86493;-75
2021/10/13 12:00:15;;;;;;;9.45;3.08;;;21.70;69.60;;;;;;5004727;28;85908;-75
2021/10/13 12:03:04;;;;;;;11.55;3.28;;;21.70;69.60;;;;;;4999872;28;89198;-74
2021/10/13 12:05:33;;;;;;;13.48;3.60;;;21.70;69.60;;;;;;5019805;28;86708;-74
2021/10/13 12:08:15;;;;;;;9.45;3.53;;;21.70;69.60;;;;;;5020535;28;85738;-79
2021/10/13 12:10:50;;;;;;;8.25;3.30;;;21.70;69.60;;;;;;5020290;28;85736;-72
2021/10/13 12:13:28;;;;;;;11.82;3.67;;;21.70;69.60;;;;;;5019407;28;86436;-77
2021/10/13 12:16:02;;;;;;;7.47;2.88;;;21.70;69.70;;;;;;5022377;28;86325;-75
2021/10/13 12:18:32;;;;;;;8.07;3.45;;;21.70;70.30;;;;;;4997187;28;85719;-73
2021/10/13 12:21:01;;;;;;;13.20;3.17;;;21.70;69.90;;;;;;5017009;28;86263;-74
2021/10/13 12:23:27;;;;;;;6.03;3.08;;;21.70;70.00;;;;;;4998787;28;88386;-74
2021/10/13 12:25:53;;;;;;;7.45;3.20;;;21.70;70.00;;;;;;5015552;28;85897;-76
2021/10/13 12:28:21;;;;;;;10.05;3.85;;;21.60;70.00;;;;;;5016749;28;86035;-75
2021/10/13 12:30:58;;;;;;;7.80;2.90;;;21.60;70.00;;;;;;4998160;28;86751;-74
2021/10/13 12:33:25;;;;;;;8.93;3.42;;;21.60;70.10;;;;;;5008644;28;87344;-74
2021/10/13 12:36:08;;;;;;;8.85;3.17;;;21.70;70.20;;;;;;4963783;28;88948;-75
2021/10/13 12:41:37;;;;;;;10.98;3.28;;;21.60;69.90;;;;;;4974092;28;85658;-75
2021/10/13 12:44:18;;;;;;;7.85;3.13;;;21.70;69.80;;;;;;4959127;28;87023;-79
2021/10/13 12:47:15;;;;;;;7.82;2.80;;;21.70;69.80;;;;;;4976113;28;86664;-77
2021/10/13 12:50:28;;;;;;;9.60;3.47;;;21.70;69.70;;;;;;4959612;28;86182;-78
2021/10/13 12:53:02;;;;;;;10.27;3.10;;;21.70;69.70;;;;;;4900798;28;86046;-76
2021/10/13 12:55:34;;;;;;;8.40;2.95;;;21.80;70.80;;;;;;4902122;28;88526;-77
2021/10/13 12:58:07;;;;;;;8.98;2.60;;;21.80;70.80;;;;;;4976172;28;86574;-78
2021/10/13 13:00:33;;;;;;;10.88;3.00;;;21.80;70.80;;;;;;4976037;28;86111;-73
2021/10/13 13:03:00;;;;;;;9.13;2.80;;;21.80;70.70;;;;;;4955030;28;86652;-75
2021/10/13 13:05:28;;;;;;;8.85;2.97;;;21.80;70.90;;;;;;4945104;28;89063;-76
2021/10/13 13:07:59;;;;;;;9.13;3.10;;;21.80;71.10;;;;;;4975053;28;86993;-76
2021/10/13 13:10:26;;;;;;;10.00;3.70;;;21.80;72.00;;;;;;4945645;28;86382;-76
2021/10/13 13:12:52;;;;;;;14.60;3.50;;;21.80;72.10;;;;;;4975764;28;86393;-76
2021/10/13 13:15:19;;;;;;;16.70;3.92;;;21.80;73.50;;;;;;4954793;28;90262;-77
2021/10/13 13:17:47;;;;;;;10.63;3.20;;;21.80;74.00;;;;;;4947944;28;89345;-77
2021/10/13 13:20:14;;;;;;;7.20;2.67;;;21.80;74.30;;;;;;4955116;28;86480;-76
2021/10/13 13:22:39;;;;;;;11.18;3.10;;;21.80;73.10;;;;;;4976538;28;86266;-76
2021/10/13 13:25:06;;;;;;;9.57;3.45;;;21.80;72.10;;;;;;4957316;28;89391;-77
2021/10/13 13:27:31;;;;;;;21.38;5.18;;;21.80;70.90;;;;;;4973583;28;87201;-77
2021/10/13 13:29:57;;;;;;;9.73;3.50;;;21.70;70.70;;;;;;4956271;28;87394;-78
2021/10/13 13:32:22;;;;;;;14.68;7.55;;;21.70;70.60;;;;;;4974429;28;85977;-75
2021/10/13 13:34:48;;;;;;;18.42;5.38;;;21.70;78.50;;;;;;4971347;28;91019;-74
2021/10/13 13:37:14;;;;;;;14.02;3.75;;;21.70;74.90;;;;;;4956555;28;89913;-77
2021/10/13 13:39:42;;;;;;;13.70;3.80;;;21.70;73.80;;;;;;4955334;28;87158;-75
2021/10/13 13:42:08;;;;;;;7.45;3.05;;;21.70;76.50;;;;;;4973069;28;86161;-75
2021/10/13 13:44:34;;;;;;;7.82;3.10;;;21.70;74.40;;;;;;4972832;28;89435;-78
2021/10/13 13:47:00;;;;;;;10.88;2.55;;;21.70;74.80;;;;;;4972589;28;86974;-78
2021/10/13 13:49:26;;;;;;;10.90;2.45;;;21.70;74.70;;;;;;4953859;28;86820;-74
2021/10/13 13:51:53;;;;;;;7.07;2.45;;;21.70;73.80;;;;;;4970671;28;87270;-74
2021/10/13 13:54:19;;;;;;;11.05;2.58;;;21.80;74.00;;;;;;4947537;28;86519;-74
2021/10/13 13:56:47;;;;;;;10.93;2.67;;;21.80;74.50;;;;;;4973025;28;86288;-74
2021/10/13 13:59:14;;;;;;;6.38;2.10;;;21.80;76.00;;;;;;4972600;28;86918;-77
2021/10/13 14:01:40;;;;;;;6.45;2.20;;;21.80;75.10;;;;;;4972916;28;86447;-76
2021/10/13 14:04:05;;;;;;;8.13;2.28;;;21.90;74.90;;;;;;4954645;28;88980;-74
2021/10/13 14:06:31;;;;;;;7.80;2.33;;;21.90;74.70;;;;;;4955115;28;89660;-78
2021/10/13 14:08:57;;;;;;;10.85;2.45;;;21.90;75.10;;;;;;4954713;28;86629;-75
2021/10/13 14:11:23;;;;;;;6.90;2.60;;;21.90;74.40;;;;;;4972051;28;85815;-74